sensor_id;sensor_type;location;lat;lon;timestamp;pressure;altitude;pressure_sealevel;temperature
20289;BMP180;10303;51.960;8.372;2024-03-22T00:01:16;101052.00;;;13.10
20289;BMP180;10303;51.960;8.372;2024-03-22T00:03:42;101054.00;;;13.20
20289;BMP180;10303;51.960;8.372;2024-03-22T00:06:08;101028.00;;;13.20
20289;BMP180;10303;51.960;8.372;2024-03-22T00:08:34;101029.00;;;13.20
20289;BMP180;10303;51.960;8.372;2024-03-22T00:11:00;101018.00;;;13.20
20289;BMP180;10303;51.960;8.372;2024-03-22T00:13:26;101029.00;;;13.20
20289;BMP180;10303;51.960;8.372;2024-03-22T00:15:52;101027.00;;;13.20
20289;BMP180;10303;51.960;8.372;2024-03-22T00:18:18;101033.00;;;13.20
20289;BMP180;10303;51.960;8.372;2024-03-22T00:20:44;101033.00;;;13.20
20289;BMP180;10303;51.960;8.372;2024-03-22T00:23:10;101037.00;;;13.20
20289;BMP180;10303;51.960;8.372;2024-03-22T00:25:36;101019.00;;;13.30
20289;BMP180;10303;51.960;8.372;2024-03-22T00:28:02;101025.00;;;13.30
20289;BMP180;10303;51.960;8.372;2024-03-22T00:30:28;101024.00;;;13.30
20289;BMP180;10303;51.960;8.372;2024-03-22T00:32:54;101014.00;;;13.30
20289;BMP180;10303;51.960;8.372;2024-03-22T00:35:20;101004.00;;;13.30
20289;BMP180;10303;51.960;8.372;2024-03-22T00:37:46;101011.00;;;13.30
20289;BMP180;10303;51.960;8.372;2024-03-22T00:40:12;101002.00;;;13.30
20289;BMP180;10303;51.960;8.372;2024-03-22T00:42:38;100991.00;;;13.30
20289;BMP180;10303;51.960;8.372;2024-03-22T00:45:04;100997.00;;;13.30
20289;BMP180;10303;51.960;8.372;2024-03-22T00:47:30;100994.00;;;13.30
20289;BMP180;10303;51.960;8.372;2024-03-22T00:49:56;100991.00;;;13.30
20289;BMP180;10303;51.960;8.372;2024-03-22T00:52:22;100969.00;;;13.30
20289;BMP180;10303;51.960;8.372;2024-03-22T00:54:49;100972.00;;;13.40
20289;BMP180;10303;51.960;8.372;2024-03-22T00:57:15;100963.00;;;13.40
20289;BMP180;10303;51.960;8.372;2024-03-22T00:59:41;100965.00;;;13.40
20289;BMP180;10303;51.960;8.372;2024-03-22T01:02:07;100969.00;;;13.40
20289;BMP180;10303;51.960;8.372;2024-03-22T01:04:33;100959.00;;;13.40
20289;BMP180;10303;51.960;8.372;2024-03-22T01:06:59;100969.00;;;13.40
20289;BMP180;10303;51.960;8.372;2024-03-22T01:09:25;100956.00;;;13.50
20289;BMP180;10303;51.960;8.372;2024-03-22T01:11:51;100966.00;;;13.50
20289;BMP180;10303;51.960;8.372;2024-03-22T01:14:17;100962.00;;;13.50
20289;BMP180;10303;51.960;8.372;2024-03-22T01:16:43;100954.00;;;13.50
20289;BMP180;10303;51.960;8.372;2024-03-22T01:19:09;100955.00;;;13.60
20289;BMP180;10303;51.960;8.372;2024-03-22T01:21:35;100946.00;;;13.60
20289;BMP180;10303;51.960;8.372;2024-03-22T01:24:01;100949.00;;;13.60
20289;BMP180;10303;51.960;8.372;2024-03-22T01:26:27;100949.00;;;13.70
20289;BMP180;10303;51.960;8.372;2024-03-22T01:28:53;100939.00;;;13.70
20289;BMP180;10303;51.960;8.372;2024-03-22T01:31:19;100938.00;;;13.70
20289;BMP180;10303;51.960;8.372;2024-03-22T01:33:45;100941.00;;;13.70
20289;BMP180;10303;51.960;8.372;2024-03-22T01:36:11;100927.00;;;13.70
20289;BMP180;10303;51.960;8.372;2024-03-22T01:38:37;100934.00;;;13.70
20289;BMP180;10303;51.960;8.372;2024-03-22T01:41:03;100925.00;;;13.80
20289;BMP180;10303;51.960;8.372;2024-03-22T01:43:29;100920.00;;;13.80
20289;BMP180;10303;51.960;8.372;2024-03-22T01:45:55;100915.00;;;13.80
20289;BMP180;10303;51.960;8.372;2024-03-22T01:48:21;100917.00;;;13.80
20289;BMP180;10303;51.960;8.372;2024-03-22T01:50:47;100911.00;;;13.90
20289;BMP180;10303;51.960;8.372;2024-03-22T01:53:13;100906.00;;;13.90
20289;BMP180;10303;51.960;8.372;2024-03-22T01:55:39;100898.00;;;13.90
20289;BMP180;10303;51.960;8.372;2024-03-22T01:58:06;100891.00;;;13.90
20289;BMP180;10303;51.960;8.372;2024-03-22T02:00:32;100890.00;;;13.90
20289;BMP180;10303;51.960;8.372;2024-03-22T02:02:58;100884.00;;;13.90
20289;BMP180;10303;51.960;8.372;2024-03-22T02:05:24;100897.00;;;13.90
20289;BMP180;10303;51.960;8.372;2024-03-22T02:07:50;100896.00;;;14.00
20289;BMP180;10303;51.960;8.372;2024-03-22T02:10:17;100891.00;;;14.00
20289;BMP180;10303;51.960;8.372;2024-03-22T02:12:43;100866.00;;;14.00
20289;BMP180;10303;51.960;8.372;2024-03-22T02:15:09;100865.00;;;14.00
20289;BMP180;10303;51.960;8.372;2024-03-22T02:17:35;100858.00;;;14.00
20289;BMP180;10303;51.960;8.372;2024-03-22T02:20:02;100850.00;;;14.00
20289;BMP180;10303;51.960;8.372;2024-03-22T02:22:30;100852.00;;;14.00
20289;BMP180;10303;51.960;8.372;2024-03-22T02:24:56;100852.00;;;14.00
20289;BMP180;10303;51.960;8.372;2024-03-22T02:27:22;100847.00;;;14.00
20289;BMP180;10303;51.960;8.372;2024-03-22T02:29:48;100846.00;;;14.00
20289;BMP180;10303;51.960;8.372;2024-03-22T02:32:14;100844.00;;;14.00
20289;BMP180;10303;51.960;8.372;2024-03-22T02:34:40;100843.00;;;14.00
20289;BMP180;10303;51.960;8.372;2024-03-22T02:37:05;100832.00;;;14.00
20289;BMP180;10303;51.960;8.372;2024-03-22T02:39:31;100822.00;;;14.00
20289;BMP180;10303;51.960;8.372;2024-03-22T02:41:57;100816.00;;;14.00
20289;BMP180;10303;51.960;8.372;2024-03-22T02:44:23;100821.00;;;14.00
20289;BMP180;10303;51.960;8.372;2024-03-22T02:46:49;100817.00;;;14.00
20289;BMP180;10303;51.960;8.372;2024-03-22T02:49:15;100814.00;;;14.00
20289;BMP180;10303;51.960;8.372;2024-03-22T02:51:41;100819.00;;;14.00
20289;BMP180;10303;51.960;8.372;2024-03-22T02:54:07;100807.00;;;14.00
20289;BMP180;10303;51.960;8.372;2024-03-22T02:56:33;100804.00;;;14.00
20289;BMP180;10303;51.960;8.372;2024-03-22T02:58:59;100802.00;;;14.00
20289;BMP180;10303;51.960;8.372;2024-03-22T03:01:25;100800.00;;;14.00
20289;BMP180;10303;51.960;8.372;2024-03-22T03:03:51;100778.00;;;14.00
20289;BMP180;10303;51.960;8.372;2024-03-22T03:06:16;100791.00;;;14.00
20289;BMP180;10303;51.960;8.372;2024-03-22T03:08:45;100783.00;;;14.00
20289;BMP180;10303;51.960;8.372;2024-03-22T03:11:14;100771.00;;;14.00
20289;BMP180;10303;51.960;8.372;2024-03-22T03:13:39;100780.00;;;14.00
20289;BMP180;10303;51.960;8.372;2024-03-22T03:16:06;100780.00;;;14.00
20289;BMP180;10303;51.960;8.372;2024-03-22T03:18:31;100779.00;;;14.00
20289;BMP180;10303;51.960;8.372;2024-03-22T03:20:57;100772.00;;;14.00
20289;BMP180;10303;51.960;8.372;2024-03-22T03:23:23;100780.00;;;14.00
20289;BMP180;10303;51.960;8.372;2024-03-22T03:25:49;100788.00;;;14.00
20289;BMP180;10303;51.960;8.372;2024-03-22T03:28:15;100783.00;;;14.00
20289;BMP180;10303;51.960;8.372;2024-03-22T03:30:41;100770.00;;;14.00
20289;BMP180;10303;51.960;8.372;2024-03-22T03:33:07;100779.00;;;14.00
20289;BMP180;10303;51.960;8.372;2024-03-22T03:35:33;100757.00;;;14.00
20289;BMP180;10303;51.960;8.372;2024-03-22T03:37:59;100760.00;;;14.00
20289;BMP180;10303;51.960;8.372;2024-03-22T03:40:25;100751.00;;;14.00
20289;BMP180;10303;51.960;8.372;2024-03-22T03:42:52;100751.00;;;13.90
20289;BMP180;10303;51.960;8.372;2024-03-22T03:45:18;100742.00;;;13.90
20289;BMP180;10303;51.960;8.372;2024-03-22T03:47:44;100721.00;;;13.90
20289;BMP180;10303;51.960;8.372;2024-03-22T03:50:10;100726.00;;;13.90
20289;BMP180;10303;51.960;8.372;2024-03-22T03:52:36;100720.00;;;13.80
20289;BMP180;10303;51.960;8.372;2024-03-22T03:55:02;100722.00;;;13.80
20289;BMP180;10303;51.960;8.372;2024-03-22T03:57:28;100715.00;;;13.80
20289;BMP180;10303;51.960;8.372;2024-03-22T03:59:54;100709.00;;;13.80
20289;BMP180;10303;51.960;8.372;2024-03-22T04:02:20;100698.00;;;13.80
20289;BMP180;10303;51.960;8.372;2024-03-22T04:04:47;100702.00;;;13.80
20289;BMP180;10303;51.960;8.372;2024-03-22T04:07:13;100694.00;;;13.80
20289;BMP180;10303;51.960;8.372;2024-03-22T04:09:40;100702.00;;;13.70
20289;BMP180;10303;51.960;8.372;2024-03-22T04:12:06;100693.00;;;13.70
20289;BMP180;10303;51.960;8.372;2024-03-22T04:14:33;100677.00;;;13.70
20289;BMP180;10303;51.960;8.372;2024-03-22T04:16:59;100687.00;;;13.70
20289;BMP180;10303;51.960;8.372;2024-03-22T04:19:25;100679.00;;;13.70
20289;BMP180;10303;51.960;8.372;2024-03-22T04:21:50;100684.00;;;13.70
20289;BMP180;10303;51.960;8.372;2024-03-22T04:24:16;100683.00;;;13.70
20289;BMP180;10303;51.960;8.372;2024-03-22T04:26:42;100673.00;;;13.70
20289;BMP180;10303;51.960;8.372;2024-03-22T04:29:08;100668.00;;;13.60
20289;BMP180;10303;51.960;8.372;2024-03-22T04:31:34;100664.00;;;13.60
20289;BMP180;10303;51.960;8.372;2024-03-22T04:34:00;100662.00;;;13.60
20289;BMP180;10303;51.960;8.372;2024-03-22T04:36:26;100664.00;;;13.60
20289;BMP180;10303;51.960;8.372;2024-03-22T04:38:52;100660.00;;;13.60
20289;BMP180;10303;51.960;8.372;2024-03-22T04:41:18;100662.00;;;13.50
20289;BMP180;10303;51.960;8.372;2024-03-22T04:43:44;100659.00;;;13.50
20289;BMP180;10303;51.960;8.372;2024-03-22T04:46:10;100663.00;;;13.50
20289;BMP180;10303;51.960;8.372;2024-03-22T04:48:36;100654.00;;;13.50
20289;BMP180;10303;51.960;8.372;2024-03-22T04:51:02;100649.00;;;13.50
20289;BMP180;10303;51.960;8.372;2024-03-22T04:53:28;100651.00;;;13.50
20289;BMP180;10303;51.960;8.372;2024-03-22T04:55:54;100645.00;;;13.50
20289;BMP180;10303;51.960;8.372;2024-03-22T04:58:22;100646.00;;;13.50
20289;BMP180;10303;51.960;8.372;2024-03-22T05:00:55;100648.00;;;13.50
20289;BMP180;10303;51.960;8.372;2024-03-22T05:03:21;100642.00;;;13.50
20289;BMP180;10303;51.960;8.372;2024-03-22T05:05:49;100644.00;;;13.50
20289;BMP180;10303;51.960;8.372;2024-03-22T05:08:15;100638.00;;;13.40
20289;BMP180;10303;51.960;8.372;2024-03-22T05:10:41;100635.00;;;13.40
20289;BMP180;10303;51.960;8.372;2024-03-22T05:13:08;100635.00;;;13.40
20289;BMP180;10303;51.960;8.372;2024-03-22T05:15:33;100639.00;;;13.50
20289;BMP180;10303;51.960;8.372;2024-03-22T05:18:00;100629.00;;;13.50
20289;BMP180;10303;51.960;8.372;2024-03-22T05:20:26;100619.00;;;13.50
20289;BMP180;10303;51.960;8.372;2024-03-22T05:22:52;100619.00;;;13.50
20289;BMP180;10303;51.960;8.372;2024-03-22T05:25:18;100604.00;;;13.40
20289;BMP180;10303;51.960;8.372;2024-03-22T05:27:45;100610.00;;;13.50
20289;BMP180;10303;51.960;8.372;2024-03-22T05:30:13;100617.00;;;13.50
20289;BMP180;10303;51.960;8.372;2024-03-22T05:32:42;100622.00;;;13.50
20289;BMP180;10303;51.960;8.372;2024-03-22T05:35:08;100618.00;;;13.50
20289;BMP180;10303;51.960;8.372;2024-03-22T05:37:35;100617.00;;;13.50
20289;BMP180;10303;51.960;8.372;2024-03-22T05:40:02;100612.00;;;13.50
20289;BMP180;10303;51.960;8.372;2024-03-22T05:42:30;100604.00;;;13.60
20289;BMP180;10303;51.960;8.372;2024-03-22T05:44:56;100603.00;;;13.60
20289;BMP180;10303;51.960;8.372;2024-03-22T05:47:22;100615.00;;;13.60
20289;BMP180;10303;51.960;8.372;2024-03-22T05:49:48;100622.00;;;13.70
20289;BMP180;10303;51.960;8.372;2024-03-22T05:52:14;100609.00;;;13.70
20289;BMP180;10303;51.960;8.372;2024-03-22T05:54:40;100623.00;;;13.80
20289;BMP180;10303;51.960;8.372;2024-03-22T05:57:07;100618.00;;;13.80
20289;BMP180;10303;51.960;8.372;2024-03-22T05:59:33;100615.00;;;13.90
20289;BMP180;10303;51.960;8.372;2024-03-22T06:02:00;100629.00;;;14.00
20289;BMP180;10303;51.960;8.372;2024-03-22T06:04:27;100624.00;;;14.00
20289;BMP180;10303;51.960;8.372;2024-03-22T06:06:52;100630.00;;;14.10
20289;BMP180;10303;51.960;8.372;2024-03-22T06:09:18;100609.00;;;14.10
20289;BMP180;10303;51.960;8.372;2024-03-22T06:11:52;100619.00;;;14.10
20289;BMP180;10303;51.960;8.372;2024-03-22T06:14:18;100616.00;;;14.20
20289;BMP180;10303;51.960;8.372;2024-03-22T06:16:44;100621.00;;;14.30
20289;BMP180;10303;51.960;8.372;2024-03-22T06:19:10;100619.00;;;14.30
20289;BMP180;10303;51.960;8.372;2024-03-22T06:21:36;100615.00;;;14.40
20289;BMP180;10303;51.960;8.372;2024-03-22T06:24:02;100610.00;;;14.40
20289;BMP180;10303;51.960;8.372;2024-03-22T06:26:29;100605.00;;;14.50
20289;BMP180;10303;51.960;8.372;2024-03-22T06:28:55;100599.00;;;14.50
20289;BMP180;10303;51.960;8.372;2024-03-22T06:31:21;100601.00;;;14.60
20289;BMP180;10303;51.960;8.372;2024-03-22T06:33:47;100598.00;;;14.70
20289;BMP180;10303;51.960;8.372;2024-03-22T06:36:12;100581.00;;;14.70
20289;BMP180;10303;51.960;8.372;2024-03-22T06:38:39;100587.00;;;14.80
20289;BMP180;10303;51.960;8.372;2024-03-22T06:41:05;100587.00;;;14.80
20289;BMP180;10303;51.960;8.372;2024-03-22T06:43:31;100592.00;;;14.80
20289;BMP180;10303;51.960;8.372;2024-03-22T06:45:56;100590.00;;;14.90
20289;BMP180;10303;51.960;8.372;2024-03-22T06:48:23;100583.00;;;14.90
20289;BMP180;10303;51.960;8.372;2024-03-22T06:50:48;100582.00;;;14.90
20289;BMP180;10303;51.960;8.372;2024-03-22T06:53:14;100580.00;;;15.00
20289;BMP180;10303;51.960;8.372;2024-03-22T06:55:40;100571.00;;;15.00
20289;BMP180;10303;51.960;8.372;2024-03-22T06:58:06;100569.00;;;15.10
20289;BMP180;10303;51.960;8.372;2024-03-22T07:00:32;100576.00;;;15.10
20289;BMP180;10303;51.960;8.372;2024-03-22T07:03:02;100574.00;;;15.10
20289;BMP180;10303;51.960;8.372;2024-03-22T07:05:28;100579.00;;;15.10
20289;BMP180;10303;51.960;8.372;2024-03-22T07:07:54;100582.00;;;15.10
20289;BMP180;10303;51.960;8.372;2024-03-22T07:10:24;100572.00;;;15.20
20289;BMP180;10303;51.960;8.372;2024-03-22T07:12:54;100580.00;;;15.20
20289;BMP180;10303;51.960;8.372;2024-03-22T07:15:23;100581.00;;;15.20
20289;BMP180;10303;51.960;8.372;2024-03-22T07:17:50;100591.00;;;15.30
20289;BMP180;10303;51.960;8.372;2024-03-22T07:20:17;100583.00;;;15.30
20289;BMP180;10303;51.960;8.372;2024-03-22T07:22:44;100583.00;;;15.30
20289;BMP180;10303;51.960;8.372;2024-03-22T07:25:11;100581.00;;;15.30
20289;BMP180;10303;51.960;8.372;2024-03-22T07:27:37;100566.00;;;15.40
20289;BMP180;10303;51.960;8.372;2024-03-22T07:30:04;100570.00;;;15.40
20289;BMP180;10303;51.960;8.372;2024-03-22T07:32:30;100576.00;;;15.40
20289;BMP180;10303;51.960;8.372;2024-03-22T07:34:57;100559.00;;;15.40
20289;BMP180;10303;51.960;8.372;2024-03-22T07:37:23;100568.00;;;15.50
20289;BMP180;10303;51.960;8.372;2024-03-22T07:39:49;100557.00;;;15.50
20289;BMP180;10303;51.960;8.372;2024-03-22T07:42:16;100551.00;;;15.50
20289;BMP180;10303;51.960;8.372;2024-03-22T07:44:42;100548.00;;;15.50
20289;BMP180;10303;51.960;8.372;2024-03-22T07:47:08;100541.00;;;15.60
20289;BMP180;10303;51.960;8.372;2024-03-22T07:49:34;100545.00;;;15.60
20289;BMP180;10303;51.960;8.372;2024-03-22T07:52:02;100535.00;;;15.60
20289;BMP180;10303;51.960;8.372;2024-03-22T07:54:28;100544.00;;;15.60
20289;BMP180;10303;51.960;8.372;2024-03-22T07:56:55;100548.00;;;15.70
20289;BMP180;10303;51.960;8.372;2024-03-22T07:59:20;100535.00;;;15.70
20289;BMP180;10303;51.960;8.372;2024-03-22T08:01:46;100554.00;;;15.70
20289;BMP180;10303;51.960;8.372;2024-03-22T08:04:12;100548.00;;;15.80
20289;BMP180;10303;51.960;8.372;2024-03-22T08:06:38;100532.00;;;15.80
20289;BMP180;10303;51.960;8.372;2024-03-22T08:09:04;100540.00;;;15.80
20289;BMP180;10303;51.960;8.372;2024-03-22T08:11:30;100535.00;;;15.90
20289;BMP180;10303;51.960;8.372;2024-03-22T08:13:56;100538.00;;;15.90
20289;BMP180;10303;51.960;8.372;2024-03-22T08:16:31;100548.00;;;16.00
20289;BMP180;10303;51.960;8.372;2024-03-22T08:18:57;100542.00;;;16.10
20289;BMP180;10303;51.960;8.372;2024-03-22T08:21:24;100533.00;;;16.10
20289;BMP180;10303;51.960;8.372;2024-03-22T08:23:52;100551.00;;;16.10
20289;BMP180;10303;51.960;8.372;2024-03-22T08:26:18;100546.00;;;16.20
20289;BMP180;10303;51.960;8.372;2024-03-22T08:28:46;100547.00;;;16.20
20289;BMP180;10303;51.960;8.372;2024-03-22T08:31:13;100539.00;;;16.20
20289;BMP180;10303;51.960;8.372;2024-03-22T08:33:39;100549.00;;;16.20
20289;BMP180;10303;51.960;8.372;2024-03-22T08:36:06;100545.00;;;16.20
20289;BMP180;10303;51.960;8.372;2024-03-22T08:38:31;100550.00;;;16.20
20289;BMP180;10303;51.960;8.372;2024-03-22T08:40:57;100549.00;;;16.20
20289;BMP180;10303;51.960;8.372;2024-03-22T08:43:23;100530.00;;;16.30
20289;BMP180;10303;51.960;8.372;2024-03-22T08:45:52;100537.00;;;16.20
20289;BMP180;10303;51.960;8.372;2024-03-22T08:48:18;100531.00;;;16.20
20289;BMP180;10303;51.960;8.372;2024-03-22T08:50:44;100516.00;;;16.20
20289;BMP180;10303;51.960;8.372;2024-03-22T08:53:10;100522.00;;;16.20
20289;BMP180;10303;51.960;8.372;2024-03-22T08:55:36;100518.00;;;16.20
20289;BMP180;10303;51.960;8.372;2024-03-22T08:58:04;100522.00;;;16.20
20289;BMP180;10303;51.960;8.372;2024-03-22T09:00:30;100535.00;;;16.30
20289;BMP180;10303;51.960;8.372;2024-03-22T09:02:56;100520.00;;;16.20
20289;BMP180;10303;51.960;8.372;2024-03-22T09:05:22;100510.00;;;16.30
20289;BMP180;10303;51.960;8.372;2024-03-22T09:07:48;100508.00;;;16.40
20289;BMP180;10303;51.960;8.372;2024-03-22T09:10:14;100507.00;;;16.40
20289;BMP180;10303;51.960;8.372;2024-03-22T09:12:40;100498.00;;;16.40
20289;BMP180;10303;51.960;8.372;2024-03-22T09:15:07;100493.00;;;16.40
20289;BMP180;10303;51.960;8.372;2024-03-22T09:17:33;100497.00;;;16.40
20289;BMP180;10303;51.960;8.372;2024-03-22T09:19:59;100479.00;;;16.40
20289;BMP180;10303;51.960;8.372;2024-03-22T09:22:25;100479.00;;;16.40
20289;BMP180;10303;51.960;8.372;2024-03-22T09:24:51;100479.00;;;16.50
20289;BMP180;10303;51.960;8.372;2024-03-22T09:27:17;100477.00;;;16.50
20289;BMP180;10303;51.960;8.372;2024-03-22T09:29:43;100479.00;;;16.40
20289;BMP180;10303;51.960;8.372;2024-03-22T09:32:09;100483.00;;;16.40
20289;BMP180;10303;51.960;8.372;2024-03-22T09:34:35;100475.00;;;16.40
20289;BMP180;10303;51.960;8.372;2024-03-22T09:37:01;100475.00;;;16.40
20289;BMP180;10303;51.960;8.372;2024-03-22T09:39:27;100459.00;;;16.40
20289;BMP180;10303;51.960;8.372;2024-03-22T09:41:58;100466.00;;;16.40
20289;BMP180;10303;51.960;8.372;2024-03-22T09:44:27;100467.00;;;16.40
20289;BMP180;10303;51.960;8.372;2024-03-22T09:46:56;100458.00;;;16.50
20289;BMP180;10303;51.960;8.372;2024-03-22T09:49:23;100470.00;;;16.50
20289;BMP180;10303;51.960;8.372;2024-03-22T09:51:51;100466.00;;;16.60
20289;BMP180;10303;51.960;8.372;2024-03-22T09:54:17;100461.00;;;16.60
20289;BMP180;10303;51.960;8.372;2024-03-22T09:56:45;100459.00;;;16.60
20289;BMP180;10303;51.960;8.372;2024-03-22T09:59:12;100475.00;;;16.60
20289;BMP180;10303;51.960;8.372;2024-03-22T10:01:41;100459.00;;;16.60
20289;BMP180;10303;51.960;8.372;2024-03-22T10:04:08;100467.00;;;16.60
20289;BMP180;10303;51.960;8.372;2024-03-22T10:06:35;100460.00;;;16.60
20289;BMP180;10303;51.960;8.372;2024-03-22T10:09:02;100458.00;;;16.60
20289;BMP180;10303;51.960;8.372;2024-03-22T10:11:30;100450.00;;;16.70
20289;BMP180;10303;51.960;8.372;2024-03-22T10:13:56;100445.00;;;16.70
20289;BMP180;10303;51.960;8.372;2024-03-22T10:16:22;100448.00;;;16.70
20289;BMP180;10303;51.960;8.372;2024-03-22T10:18:48;100452.00;;;16.60
20289;BMP180;10303;51.960;8.372;2024-03-22T10:21:18;100449.00;;;16.60
20289;BMP180;10303;51.960;8.372;2024-03-22T10:23:44;100447.00;;;16.70
20289;BMP180;10303;51.960;8.372;2024-03-22T10:26:12;100442.00;;;16.70
20289;BMP180;10303;51.960;8.372;2024-03-22T10:28:45;100448.00;;;16.60
20289;BMP180;10303;51.960;8.372;2024-03-22T10:31:15;100442.00;;;16.60
20289;BMP180;10303;51.960;8.372;2024-03-22T10:33:46;100431.00;;;16.60
20289;BMP180;10303;51.960;8.372;2024-03-22T10:36:13;100430.00;;;16.50
20289;BMP180;10303;51.960;8.372;2024-03-22T10:38:39;100426.00;;;16.50
20289;BMP180;10303;51.960;8.372;2024-03-22T10:41:06;100438.00;;;16.50
20289;BMP180;10303;51.960;8.372;2024-03-22T10:43:32;100436.00;;;16.50
20289;BMP180;10303;51.960;8.372;2024-03-22T10:46:02;100429.00;;;16.40
20289;BMP180;10303;51.960;8.372;2024-03-22T10:48:31;100437.00;;;16.40
20289;BMP180;10303;51.960;8.372;2024-03-22T10:51:01;100424.00;;;16.50
20289;BMP180;10303;51.960;8.372;2024-03-22T10:53:32;100429.00;;;16.50
20289;BMP180;10303;51.960;8.372;2024-03-22T10:56:00;100431.00;;;16.50
20289;BMP180;10303;51.960;8.372;2024-03-22T10:58:27;100432.00;;;16.50
20289;BMP180;10303;51.960;8.372;2024-03-22T11:00:56;100427.00;;;16.50
20289;BMP180;10303;51.960;8.372;2024-03-22T11:03:26;100423.00;;;16.60
20289;BMP180;10303;51.960;8.372;2024-03-22T11:05:56;100415.00;;;16.60
20289;BMP180;10303;51.960;8.372;2024-03-22T11:08:27;100418.00;;;16.50
20289;BMP180;10303;51.960;8.372;2024-03-22T11:10:56;100411.00;;;16.60
20289;BMP180;10303;51.960;8.372;2024-03-22T11:13:23;100416.00;;;16.50
20289;BMP180;10303;51.960;8.372;2024-03-22T11:15:50;100409.00;;;16.40
20289;BMP180;10303;51.960;8.372;2024-03-22T11:18:17;100407.00;;;16.40
20289;BMP180;10303;51.960;8.372;2024-03-22T11:20:44;100408.00;;;16.20
20289;BMP180;10303;51.960;8.372;2024-03-22T11:23:13;100410.00;;;16.20
20289;BMP180;10303;51.960;8.372;2024-03-22T11:25:39;100412.00;;;16.10
20289;BMP180;10303;51.960;8.372;2024-03-22T11:28:05;100408.00;;;16.10
20289;BMP180;10303;51.960;8.372;2024-03-22T11:30:33;100416.00;;;16.20
20289;BMP180;10303;51.960;8.372;2024-03-22T11:33:04;100410.00;;;16.00
20289;BMP180;10303;51.960;8.372;2024-03-22T11:35:31;100408.00;;;16.10
20289;BMP180;10303;51.960;8.372;2024-03-22T11:37:57;100416.00;;;16.00
20289;BMP180;10303;51.960;8.372;2024-03-22T11:40:26;100422.00;;;15.90
20289;BMP180;10303;51.960;8.372;2024-03-22T11:42:55;100403.00;;;15.70
20289;BMP180;10303;51.960;8.372;2024-03-22T11:45:23;100401.00;;;15.80
20289;BMP180;10303;51.960;8.372;2024-03-22T11:47:49;100399.00;;;15.80
20289;BMP180;10303;51.960;8.372;2024-03-22T11:50:15;100407.00;;;15.80
20289;BMP180;10303;51.960;8.372;2024-03-22T11:52:42;100400.00;;;15.80
20289;BMP180;10303;51.960;8.372;2024-03-22T11:55:10;100387.00;;;15.90
20289;BMP180;10303;51.960;8.372;2024-03-22T11:57:36;100388.00;;;15.80
20289;BMP180;10303;51.960;8.372;2024-03-22T12:00:04;100392.00;;;15.70
20289;BMP180;10303;51.960;8.372;2024-03-22T12:02:41;100395.00;;;15.80
20289;BMP180;10303;51.960;8.372;2024-03-22T12:05:09;100389.00;;;15.60
20289;BMP180;10303;51.960;8.372;2024-03-22T12:07:36;100397.00;;;15.50
20289;BMP180;10303;51.960;8.372;2024-03-22T12:10:03;100387.00;;;15.60
20289;BMP180;10303;51.960;8.372;2024-03-22T12:12:30;100395.00;;;15.60
20289;BMP180;10303;51.960;8.372;2024-03-22T12:14:56;100394.00;;;15.60
20289;BMP180;10303;51.960;8.372;2024-03-22T12:17:22;100392.00;;;15.60
20289;BMP180;10303;51.960;8.372;2024-03-22T12:19:48;100388.00;;;15.60
20289;BMP180;10303;51.960;8.372;2024-03-22T12:22:14;100386.00;;;15.60
20289;BMP180;10303;51.960;8.372;2024-03-22T12:24:40;100390.00;;;15.60
20289;BMP180;10303;51.960;8.372;2024-03-22T12:27:05;100386.00;;;15.60
20289;BMP180;10303;51.960;8.372;2024-03-22T12:29:35;100396.00;;;15.50
20289;BMP180;10303;51.960;8.372;2024-03-22T12:32:02;100383.00;;;15.50
20289;BMP180;10303;51.960;8.372;2024-03-22T12:34:32;100374.00;;;15.60
20289;BMP180;10303;51.960;8.372;2024-03-22T12:36:59;100359.00;;;15.60
20289;BMP180;10303;51.960;8.372;2024-03-22T12:39:26;100352.00;;;15.50
20289;BMP180;10303;51.960;8.372;2024-03-22T12:41:53;100362.00;;;15.60
20289;BMP180;10303;51.960;8.372;2024-03-22T12:44:20;100365.00;;;15.60
20289;BMP180;10303;51.960;8.372;2024-03-22T12:46:46;100366.00;;;15.50
20289;BMP180;10303;51.960;8.372;2024-03-22T12:49:12;100363.00;;;15.20
20289;BMP180;10303;51.960;8.372;2024-03-22T12:51:38;100352.00;;;15.20
20289;BMP180;10303;51.960;8.372;2024-03-22T12:54:05;100359.00;;;15.10
20289;BMP180;10303;51.960;8.372;2024-03-22T12:56:31;100359.00;;;15.20
20289;BMP180;10303;51.960;8.372;2024-03-22T12:58:59;100355.00;;;15.30
20289;BMP180;10303;51.960;8.372;2024-03-22T13:01:25;100350.00;;;15.30
20289;BMP180;10303;51.960;8.372;2024-03-22T13:03:51;100342.00;;;15.20
20289;BMP180;10303;51.960;8.372;2024-03-22T13:06:17;100346.00;;;15.20
20289;BMP180;10303;51.960;8.372;2024-03-22T13:08:43;100338.00;;;15.20
20289;BMP180;10303;51.960;8.372;2024-03-22T13:11:09;100347.00;;;15.10
20289;BMP180;10303;51.960;8.372;2024-03-22T13:13:36;100347.00;;;15.10
20289;BMP180;10303;51.960;8.372;2024-03-22T13:16:02;100345.00;;;15.10
20289;BMP180;10303;51.960;8.372;2024-03-22T13:18:29;100335.00;;;15.20
20289;BMP180;10303;51.960;8.372;2024-03-22T13:20:55;100334.00;;;15.10
20289;BMP180;10303;51.960;8.372;2024-03-22T13:23:21;100335.00;;;15.00
20289;BMP180;10303;51.960;8.372;2024-03-22T13:25:48;100330.00;;;14.90
20289;BMP180;10303;51.960;8.372;2024-03-22T13:28:15;100326.00;;;15.00
20289;BMP180;10303;51.960;8.372;2024-03-22T13:30:46;100326.00;;;15.00
20289;BMP180;10303;51.960;8.372;2024-03-22T13:33:12;100324.00;;;15.10
20289;BMP180;10303;51.960;8.372;2024-03-22T13:35:38;100308.00;;;14.90
20289;BMP180;10303;51.960;8.372;2024-03-22T13:38:04;100319.00;;;14.90
20289;BMP180;10303;51.960;8.372;2024-03-22T13:40:30;100315.00;;;14.90
20289;BMP180;10303;51.960;8.372;2024-03-22T13:42:56;100322.00;;;14.70
20289;BMP180;10303;51.960;8.372;2024-03-22T13:45:22;100313.00;;;14.70
20289;BMP180;10303;51.960;8.372;2024-03-22T13:47:48;100314.00;;;14.70
20289;BMP180;10303;51.960;8.372;2024-03-22T13:50:14;100306.00;;;14.80
20289;BMP180;10303;51.960;8.372;2024-03-22T13:52:40;100306.00;;;14.80